Time;durP1;ratioP1;P1;durP2;ratioP2;P2;SDS_P1;SDS_P2;PMS_P1;PMS_P2;Temp;Humidity;BMP_temperature;BMP_pressure;BME280_temperature;BME280_humidity;BME280_pressure;Samples;Min_cycle;Max_cycle;Signal;HPM_P1;HPM_P2
2021/06/07 00:01:07;;;;;;;34.47;24.03;;;15.90;99.90;;;;;;5034359;28;20213;-59
2021/06/07 00:03:33;;;;;;;31.63;23.00;;;16.00;99.90;;;;;;5034289;28;20207;-60
2021/06/07 00:06:00;;;;;;;33.60;23.63;;;16.00;99.90;;;;;;5034208;28;20234;-57
2021/06/07 00:08:27;;;;;;;32.27;23.67;;;16.00;99.90;;;;;;5034518;28;20302;-57
2021/06/07 00:10:54;;;;;;;34.73;23.50;;;15.90;99.90;;;;;;5034341;28;20570;-57
2021/06/07 00:13:21;;;;;;;30.63;23.03;;;16.00;99.90;;;;;;5034329;28;20203;-58
2021/06/07 00:15:48;;;;;;;30.97;23.60;;;16.00;99.90;;;;;;5034203;28;20253;-56
2021/06/07 00:18:15;;;;;;;29.57;23.30;;;16.00;99.90;;;;;;5034100;28;20206;-55
2021/06/07 00:20:44;;;;;;;32.07;24.00;;;15.90;99.90;;;;;;5035004;28;20304;-61
2021/06/07 00:23:11;;;;;;;32.03;24.27;;;15.90;99.90;;;;;;5035578;28;20206;-58
2021/06/07 00:25:40;;;;;;;32.83;25.47;;;15.80;99.90;;;;;;5035463;28;20206;-61
2021/06/07 00:28:07;;;;;;;32.53;24.63;;;15.80;99.90;;;;;;5035930;28;20214;-60
2021/06/07 00:30:34;;;;;;;35.67;24.83;;;15.80;99.90;;;;;;5034329;28;20231;-58
2021/06/07 00:33:00;;;;;;;32.87;24.13;;;15.80;99.90;;;;;;5039231;28;20210;-61
2021/06/07 00:35:27;;;;;;;33.53;24.53;;;15.80;99.90;;;;;;5041792;28;20206;-61
2021/06/07 00:37:54;;;;;;;34.00;24.43;;;15.80;99.90;;;;;;5042442;28;20209;-61
2021/06/07 00:40:23;;;;;;;34.93;25.13;;;15.70;99.90;;;;;;5034260;28;20210;-59
2021/06/07 00:42:51;;;;;;;33.23;24.40;;;15.70;99.90;;;;;;5033860;28;20206;-61
2021/06/07 00:45:21;;;;;;;35.17;26.23;;;15.60;99.90;;;;;;5033466;28;20210;-59
2021/06/07 00:47:48;;;;;;;35.40;24.90;;;15.60;99.90;;;;;;5033875;28;20238;-60
2021/06/07 00:50:23;;;;;;;33.53;24.87;;;15.60;99.90;;;;;;5033485;28;20268;-60
2021/06/07 00:53:02;;;;;;;34.37;25.70;;;15.60;99.90;;;;;;5033777;28;20209;-60
2021/06/07 00:55:30;;;;;;;37.97;25.77;;;15.70;99.90;;;;;;5033448;28;20617;-59
2021/06/07 00:57:59;;;;;;;33.53;25.90;;;15.60;99.90;;;;;;5032294;28;20209;-59
2021/06/07 01:00:26;;;;;;;32.80;26.73;;;15.50;99.90;;;;;;5033205;28;20702;-59
2021/06/07 01:02:54;;;;;;;36.80;28.10;;;15.50;99.90;;;;;;5033505;28;20213;-59
2021/06/07 01:05:20;;;;;;;36.67;26.37;;;15.50;99.90;;;;;;5033185;28;20265;-60
2021/06/07 01:07:47;;;;;;;34.50;26.20;;;15.50;99.90;;;;;;5033030;28;20233;-61
2021/06/07 01:10:14;;;;;;;32.60;25.33;;;15.50;99.90;;;;;;5032927;28;20214;-61
2021/06/07 01:12:40;;;;;;;34.83;25.23;;;15.50;99.90;;;;;;5033386;28;20206;-61
2021/06/07 01:15:10;;;;;;;35.53;25.53;;;15.60;99.90;;;;;;5033247;28;20207;-58
2021/06/07 01:17:36;;;;;;;32.83;25.80;;;15.50;99.90;;;;;;5033100;28;20230;-58
2021/06/07 01:20:05;;;;;;;36.87;26.73;;;15.50;99.90;;;;;;5032921;28;20670;-59
2021/06/07 01:22:33;;;;;;;35.27;26.63;;;15.50;99.90;;;;;;5032931;28;20208;-61
2021/06/07 01:24:59;;;;;;;38.30;28.03;;;15.50;99.90;;;;;;5032829;28;20217;-60
2021/06/07 01:27:25;;;;;;;34.70;26.20;;;15.40;99.90;;;;;;5032868;28;20245;-61
2021/06/07 01:29:52;;;;;;;33.00;24.80;;;15.40;1.00;;;;;;5032826;28;20210;-62
2021/06/07 01:32:18;;;;;;;33.43;25.47;;;15.50;99.90;;;;;;5032901;28;20260;-61
2021/06/07 01:34:44;;;;;;;36.17;26.20;;;15.40;1.00;;;;;;5033020;28;20206;-58
2021/06/07 01:37:11;;;;;;;35.83;26.97;;;15.40;99.90;;;;;;5032507;28;20723;-61
2021/06/07 01:39:39;;;;;;;32.80;24.33;;;15.30;99.90;;;;;;5032619;28;20213;-59
2021/06/07 01:42:05;;;;;;;34.57;25.30;;;15.30;1.00;;;;;;5032529;28;20202;-61
2021/06/07 01:44:31;;;;;;;34.00;26.10;;;15.40;99.90;;;;;;5032716;28;20554;-61
2021/06/07 01:46:58;;;;;;;36.80;27.00;;;15.30;99.90;;;;;;5032427;28;20589;-61
2021/06/07 01:49:24;;;;;;;34.47;26.50;;;15.30;99.90;;;;;;5032660;28;20206;-57
2021/06/07 01:51:50;;;;;;;35.23;26.87;;;15.20;1.00;;;;;;5032166;28;20207;-58
2021/06/07 01:54:16;;;;;;;35.47;25.57;;;15.30;1.00;;;;;;5032358;28;20206;-61
2021/06/07 01:56:44;;;;;;;36.50;27.57;;;15.20;1.00;;;;;;5032671;28;20645;-58
2021/06/07 01:59:11;;;;;;;36.93;27.57;;;15.20;1.00;;;;;;5032484;28;20305;-57
2021/06/07 02:01:37;;;;;;;34.90;26.53;;;15.20;1.00;;;;;;5032347;28;20206;-59
2021/06/07 02:04:03;;;;;;;34.23;25.93;;;15.20;1.00;;;;;;5032301;28;20698;-57
2021/06/07 02:06:30;;;;;;;36.93;27.07;;;15.30;1.00;;;;;;5031731;28;20249;-56
2021/06/07 02:08:56;;;;;;;32.80;26.03;;;15.30;1.00;;;;;;5032029;28;20217;-60
2021/06/07 02:11:24;;;;;;;32.60;26.10;;;15.30;1.00;;;;;;5032110;28;20202;-59
2021/06/07 02:13:54;;;;;;;36.23;25.93;;;15.30;1.00;;;;;;5032043;28;20675;-59
2021/06/07 02:16:23;;;;;;;35.07;26.90;;;15.30;1.00;;;;;;5032061;28;20218;-58
2021/06/07 02:18:49;;;;;;;38.77;26.70;;;15.30;1.00;;;;;;5031936;28;20213;-59
2021/06/07 02:21:18;;;;;;;34.27;25.73;;;15.30;1.00;;;;;;5031758;28;20214;-58
2021/06/07 02:23:45;;;;;;;35.40;26.30;;;15.30;1.00;;;;;;5032076;28;20280;-61
2021/06/07 02:26:11;;;;;;;36.80;27.63;;;15.20;1.00;;;;;;5031950;28;20230;-58
2021/06/07 02:28:38;;;;;;;37.20;27.60;;;15.20;1.00;;;;;;5032076;28;20789;-58
2021/06/07 02:31:06;;;;;;;38.57;27.90;;;15.10;1.00;;;;;;5031683;28;20638;-57
2021/06/07 02:33:33;;;;;;;40.07;28.27;;;15.10;1.00;;;;;;5031777;28;20209;-57
2021/06/07 02:35:59;;;;;;;39.23;28.73;;;15.20;1.00;;;;;;5031887;28;20233;-60
2021/06/07 02:38:25;;;;;;;38.27;28.13;;;15.10;1.00;;;;;;5032062;28;20202;-58
2021/06/07 02:40:52;;;;;;;43.33;29.47;;;15.10;1.00;;;;;;5031698;28;20209;-59
2021/06/07 02:43:18;;;;;;;42.93;29.47;;;15.10;1.00;;;;;;5031906;28;20820;-58
2021/06/07 02:45:44;;;;;;;45.07;30.27;;;15.10;1.00;;;;;;5031638;28;20234;-59
2021/06/07 02:48:12;;;;;;;40.43;28.70;;;15.10;13.60;;;;;;5031652;28;20252;-60
2021/06/07 02:50:40;;;;;;;40.77;29.40;;;15.10;25.00;;;;;;5031690;28;20213;-60
2021/06/07 02:53:07;;;;;;;45.40;31.07;;;15.10;34.60;;;;;;5031911;28;20213;-61
2021/06/07 02:55:36;;;;;;;44.13;30.70;;;15.10;1.00;;;;;;5031696;28;20203;-61
2021/06/07 02:58:03;;;;;;;45.93;30.27;;;15.10;11.10;;;;;;5031778;28;20733;-59
2021/06/07 03:00:32;;;;;;;45.83;30.07;;;15.10;1.00;;;;;;5031453;28;20217;-59
2021/06/07 03:03:00;;;;;;;45.83;31.03;;;15.00;34.90;;;;;;5031580;28;20217;-61
2021/06/07 03:05:28;;;;;;;50.93;31.83;;;15.10;30.90;;;;;;5031848;28;20236;-61
2021/06/07 03:07:55;;;;;;;46.17;31.90;;;15.10;1.00;;;;;;5031390;28;20222;-59
2021/06/07 03:10:22;;;;;;;42.60;30.47;;;15.10;16.90;;;;;;5031538;28;20210;-61
2021/06/07 03:12:48;;;;;;;48.13;31.57;;;15.00;93.60;;;;;;5031479;28;20225;-61
2021/06/07 03:15:16;;;;;;;46.43;32.50;;;15.00;99.90;;;;;;5031376;28;20214;-60
2021/06/07 03:17:44;;;;;;;44.23;30.07;;;15.00;99.90;;;;;;5031331;28;20227;-61
2021/06/07 03:20:13;;;;;;;45.67;31.20;;;15.10;45.00;;;;;;5032566;28;20206;-61
2021/06/07 03:22:40;;;;;;;46.57;31.03;;;15.10;3.10;;;;;;5035262;28;20214;-61
2021/06/07 03:25:09;;;;;;;46.53;31.07;;;15.10;6.10;;;;;;5035261;28;20556;-61
2021/06/07 03:27:37;;;;;;;51.93;31.43;;;15.10;17.60;;;;;;5034777;28;20230;-60
2021/06/07 03:30:05;;;;;;;48.47;30.60;;;15.10;1.00;;;;;;5035087;28;20213;-61
2021/06/07 03:32:31;;;;;;;49.83;31.43;;;15.00;67.80;;;;;;5035240;28;20634;-62
2021/06/07 03:34:57;;;;;;;47.87;30.90;;;15.00;59.00;;;;;;5035283;28;20218;-61
2021/06/07 03:37:23;;;;;;;49.97;30.27;;;15.00;60.60;;;;;;5034923;28;20222;-60
2021/06/07 03:39:51;;;;;;;45.67;29.83;;;15.00;37.30;;;;;;5034975;28;20209;-61
2021/06/07 03:42:17;;;;;;;45.03;29.67;;;15.10;2.10;;;;;;5034910;28;20210;-59
2021/06/07 03:44:43;;;;;;;39.50;29.00;;;15.10;1.00;;;;;;5035084;28;20211;-61
2021/06/07 03:47:09;;;;;;;45.07;29.63;;;15.10;1.00;;;;;;5034767;28;20722;-58
2021/06/07 03:49:36;;;;;;;45.13;30.00;;;15.20;1.00;;;;;;5034884;28;20268;-61
2021/06/07 03:52:03;;;;;;;42.23;30.70;;;15.10;1.00;;;;;;5034619;28;20211;-59
2021/06/07 03:54:29;;;;;;;51.53;32.80;;;15.00;1.00;;;;;;5034688;28;20213;-61
2021/06/07 03:56:56;;;;;;;55.73;33.73;;;14.90;1.00;;;;;;5034444;28;20280;-59
2021/06/07 03:59:22;;;;;;;49.17;31.63;;;14.90;83.10;;;;;;5034786;28;20257;-61
2021/06/07 04:01:48;;;;;;;47.30;31.17;;;14.90;18.10;;;;;;5034567;28;20217;-60
2021/06/07 04:04:15;;;;;;;45.70;30.60;;;14.90;83.30;;;;;;5034556;28;20252;-61
2021/06/07 04:06:41;;;;;;;50.73;31.77;;;14.90;65.80;;;;;;5034280;28;20253;-61
2021/06/07 04:09:07;;;;;;;43.90;28.57;;;14.90;29.90;;;;;;5034430;28;20210;-61
2021/06/07 04:11:33;;;;;;;46.23;30.57;;;14.90;1.00;;;;;;5034289;28;20217;-60
2021/06/07 04:14:01;;;;;;;47.40;30.90;;;14.80;1.00;;;;;;5034471;28;20221;-60
2021/06/07 04:16:27;;;;;;;52.03;30.97;;;14.80;63.70;;;;;;5034421;28;20222;-61
2021/06/07 04:18:53;;;;;;;49.17;31.87;;;14.80;17.30;;;;;;5012858;28;20211;-59
2021/06/07 04:21:19;;;;;;;46.33;30.10;;;14.80;19.40;;;;;;5033499;28;20202;-61
2021/06/07 04:23:45;;;;;;;48.90;29.80;;;14.80;1.00;;;;;;5028612;28;20261;-61
2021/06/07 04:26:12;;;;;;;51.63;32.13;;;14.80;1.00;;;;;;5015511;28;20227;-58
2021/06/07 04:28:39;;;;;;;47.60;30.50;;;14.80;1.00;;;;;;5008586;28;20266;-61
2021/06/07 04:31:07;;;;;;;44.23;29.70;;;14.80;1.00;;;;;;4996229;28;20571;-61
2021/06/07 04:33:33;;;;;;;48.33;31.30;;;14.70;1.00;;;;;;5022889;28;20217;-61
2021/06/07 04:35:59;;;;;;;52.30;32.40;;;14.70;1.00;;;;;;5021165;28;20227;-60
2021/06/07 04:38:26;;;;;;;45.17;30.30;;;14.60;1.00;;;;;;5013882;28;20215;-59
2021/06/07 04:40:52;;;;;;;44.43;29.93;;;14.70;1.00;;;;;;5027392;28;20815;-60
2021/06/07 04:43:18;;;;;;;48.63;31.03;;;14.70;1.00;;;;;;5033877;28;20213;-58
2021/06/07 04:45:46;;;;;;;48.40;31.73;;;14.70;1.00;;;;;;5033519;28;20226;-59
2021/06/07 04:48:14;;;;;;;47.37;30.80;;;14.70;1.00;;;;;;5033456;28;20233;-59
2021/06/07 04:50:41;;;;;;;47.87;30.70;;;14.80;1.00;;;;;;5033325;28;20214;-59
2021/06/07 04:53:10;;;;;;;52.13;32.50;;;14.80;1.00;;;;;;5033112;28;20210;-58
2021/06/07 04:55:38;;;;;;;54.03;34.27;;;14.80;1.00;;;;;;5033820;28;20218;-60
2021/06/07 04:58:08;;;;;;;46.07;33.30;;;14.80;1.00;;;;;;5033364;28;20280;-60
2021/06/07 05:00:35;;;;;;;46.63;31.17;;;14.80;1.00;;;;;;5033158;28;20210;-58
2021/06/07 05:03:01;;;;;;;46.00;30.80;;;14.80;1.00;;;;;;5033218;28;20207;-60
2021/06/07 05:05:29;;;;;;;48.90;31.33;;;14.80;1.00;;;;;;5032936;28;20268;-59
2021/06/07 05:07:55;;;;;;;46.60;32.27;;;14.80;99.90;;;;;;5032776;28;20546;-60
2021/06/07 05:10:22;;;;;;;44.83;30.43;;;14.80;1.00;;;;;;5032982;28;20614;-60
2021/06/07 05:12:49;;;;;;;43.73;30.37;;;14.80;99.90;;;;;;5032911;28;20256;-60
2021/06/07 05:15:16;;;;;;;47.53;30.27;;;14.80;1.00;;;;;;5032937;28;20218;-60
2021/06/07 05:17:43;;;;;;;50.23;31.37;;;14.80;99.90;;;;;;5032672;28;20226;-60
2021/06/07 05:20:12;;;;;;;43.67;30.73;;;14.80;1.00;;;;;;5032662;28;20214;-58
2021/06/07 05:22:39;;;;;;;45.43;31.20;;;14.80;99.90;;;;;;5032802;28;20202;-61
2021/06/07 05:25:07;;;;;;;42.93;29.83;;;14.80;99.90;;;;;;5032890;28;20225;-60
2021/06/07 05:27:33;;;;;;;48.87;30.27;;;14.80;99.90;;;;;;5032585;28;20236;-64
2021/06/07 05:30:00;;;;;;;47.13;29.80;;;14.80;99.90;;;;;;5014612;28;20642;-61
2021/06/07 05:32:27;;;;;;;49.23;32.33;;;14.80;99.90;;;;;;5010650;28;20575;-64
2021/06/07 05:34:54;;;;;;;51.20;33.17;;;14.80;99.90;;;;;;5012720;28;20211;-64
2021/06/07 05:37:20;;;;;;;51.40;33.07;;;14.80;99.90;;;;;;5013027;28;20218;-61
2021/06/07 05:39:49;;;;;;;47.17;30.37;;;14.80;99.90;;;;;;5009839;28;20215;-59
2021/06/07 05:42:15;;;;;;;47.90;32.33;;;14.80;99.90;;;;;;5012250;28;20234;-60
2021/06/07 05:44:41;;;;;;;45.30;30.47;;;14.80;99.90;;;;;;5012249;28;20238;-61
2021/06/07 05:47:07;;;;;;;49.87;31.57;;;14.80;99.90;;;;;;5012140;28;20242;-63
2021/06/07 05:49:37;;;;;;;47.40;31.33;;;14.80;99.90;;;;;;5012168;28;20207;-63
2021/06/07 05:52:05;;;;;;;47.50;32.47;;;14.90;99.90;;;;;;5012049;28;20601;-64
2021/06/07 05:54:31;;;;;;;51.37;32.97;;;14.90;99.90;;;;;;5012729;28;20211;-64
2021/06/07 05:56:58;;;;;;;45.37;32.83;;;15.00;99.90;;;;;;5012052;28;20308;-65
2021/06/07 05:59:27;;;;;;;53.13;31.67;;;15.00;99.90;;;;;;5011443;28;20624;-65
2021/06/07 06:01:53;;;;;;;48.13;31.20;;;15.00;99.90;;;;;;5011646;28;20223;-66
2021/06/07 06:04:19;;;;;;;46.23;33.03;;;14.90;99.90;;;;;;5019893;28;20729;-67
2021/06/07 06:06:45;;;;;;;48.40;32.57;;;15.00;99.90;;;;;;5031443;28;20237;-65
2021/06/07 06:09:11;;;;;;;46.17;31.47;;;14.90;99.90;;;;;;5031870;28;20202;-65
2021/06/07 06:11:39;;;;;;;44.17;30.90;;;15.00;99.90;;;;;;5031272;28;20209;-65
2021/06/07 06:14:06;;;;;;;48.93;32.50;;;15.10;99.90;;;;;;5031842;28;20206;-65
2021/06/07 06:16:32;;;;;;;41.73;30.33;;;15.20;99.90;;;;;;5031638;28;20218;-64
2021/06/07 06:18:59;;;;;;;41.53;29.73;;;15.20;99.90;;;;;;5031843;28;20214;-65
2021/06/07 06:21:27;;;;;;;42.13;28.87;;;15.30;99.90;;;;;;5026396;28;20211;-66
2021/06/07 06:23:53;;;;;;;40.90;29.77;;;15.40;99.90;;;;;;5011916;28;20221;-67
2021/06/07 06:26:20;;;;;;;41.87;29.70;;;15.50;97.70;;;;;;5011628;28;20727;-67
2021/06/07 06:28:46;;;;;;;45.60;30.13;;;15.50;97.20;;;;;;5011689;28;20214;-64
2021/06/07 06:31:15;;;;;;;40.60;29.83;;;15.40;78.10;;;;;;5011029;28;20213;-64
2021/06/07 06:33:41;;;;;;;47.00;30.87;;;15.50;81.90;;;;;;5011562;28;20211;-65
2021/06/07 06:36:08;;;;;;;35.43;27.77;;;15.60;66.70;;;;;;5011784;28;20234;-65
2021/06/07 06:38:34;;;;;;;40.70;28.23;;;15.60;15.10;;;;;;5011573;28;20203;-65
2021/06/07 06:41:01;;;;;;;47.03;30.57;;;15.60;24.20;;;;;;5011424;28;20207;-64
2021/06/07 06:43:27;;;;;;;37.23;28.10;;;15.70;29.80;;;;;;5011538;28;20211;-65
2021/06/07 06:45:53;;;;;;;39.03;28.40;;;15.80;32.50;;;;;;5011063;28;20658;-64
2021/06/07 06:48:20;;;;;;;42.70;27.90;;;15.80;7.60;;;;;;5011540;28;20274;-65
2021/06/07 06:50:47;;;;;;;35.73;26.80;;;15.90;1.00;;;;;;5011085;28;20520;-64
2021/06/07 06:53:16;;;;;;;38.00;27.87;;;15.90;1.00;;;;;;5011640;28;20207;-64
2021/06/07 06:55:47;;;;;;;37.03;25.33;;;15.80;1.00;;;;;;5015297;28;20290;-64
2021/06/07 06:58:13;;;;;;;40.93;28.33;;;15.90;1.00;;;;;;5015304;28;20569;-65
2021/06/07 07:00:40;;;;;;;41.90;30.03;;;15.80;2.80;;;;;;5014923;28;20207;-65
2021/06/07 07:03:08;;;;;;;41.47;28.57;;;16.00;7.90;;;;;;5015255;28;20218;-65
2021/06/07 07:05:36;;;;;;;39.47;28.87;;;15.90;1.00;;;;;;5015216;28;20664;-65
2021/06/07 07:08:02;;;;;;;41.40;29.07;;;15.90;1.00;;;;;;5014852;28;20281;-66
2021/06/07 07:10:28;;;;;;;41.77;28.77;;;15.90;1.00;;;;;;5014870;28;20203;-65
2021/06/07 07:12:55;;;;;;;36.30;25.70;;;15.90;1.00;;;;;;5014881;28;20211;-65
2021/06/07 07:15:21;;;;;;;39.27;28.83;;;16.00;1.00;;;;;;5015399;28;20669;-64
2021/06/07 07:17:47;;;;;;;39.87;28.13;;;16.00;1.00;;;;;;5015240;28;20206;-63
2021/06/07 07:20:14;;;;;;;44.27;28.83;;;16.10;1.00;;;;;;5014633;28;20207;-64
2021/06/07 07:22:43;;;;;;;40.70;28.57;;;16.10;1.00;;;;;;5014955;28;20214;-64
2021/06/07 07:25:10;;;;;;;39.90;26.73;;;16.20;1.00;;;;;;5014902;28;20207;-65
2021/06/07 07:27:37;;;;;;;36.77;25.97;;;16.40;1.00;;;;;;5015025;28;20230;-65
2021/06/07 07:30:08;;;;;;;36.77;27.70;;;16.60;1.00;;;;;;5014851;28;20305;-64
2021/06/07 07:32:35;;;;;;;40.40;26.53;;;16.70;1.00;;;;;;5014853;28;20265;-64
2021/06/07 07:35:01;;;;;;;38.83;25.60;;;16.60;1.00;;;;;;5014816;28;20206;-65
2021/06/07 07:37:27;;;;;;;39.30;26.87;;;16.70;1.00;;;;;;5014737;28;20249;-64
2021/06/07 07:39:55;;;;;;;35.87;26.97;;;16.70;1.00;;;;;;5014217;28;20211;-65
2021/06/07 07:42:21;;;;;;;39.50;28.60;;;16.70;1.00;;;;;;5014667;28;20207;-65
2021/06/07 07:44:47;;;;;;;34.37;25.33;;;16.70;1.00;;;;;;5014632;28;20565;-64
2021/06/07 07:47:14;;;;;;;35.03;25.30;;;16.60;1.00;;;;;;5014603;28;20231;-64
2021/06/07 07:49:40;;;;;;;33.73;24.70;;;16.80;1.00;;;;;;5014558;28;20211;-63
2021/06/07 07:52:08;;;;;;;37.40;25.40;;;16.70;1.00;;;;;;5014107;28;20631;-65
2021/06/07 07:54:35;;;;;;;31.90;23.93;;;16.60;1.00;;;;;;5014474;28;20211;-64
2021/06/07 07:57:04;;;;;;;36.67;25.83;;;16.70;1.00;;;;;;5014380;28;20231;-66
2021/06/07 07:59:31;;;;;;;31.97;23.67;;;16.70;1.00;;;;;;5014568;28;20211;-67
2021/06/07 08:01:57;;;;;;;33.77;24.70;;;16.80;1.00;;;;;;5013883;28;20218;-67
2021/06/07 08:04:23;;;;;;;31.83;23.97;;;16.60;1.00;;;;;;5014542;28;20210;-65
2021/06/07 08:06:49;;;;;;;41.37;29.17;;;16.60;1.00;;;;;;5013327;28;20235;-65
2021/06/07 08:09:15;;;;;;;39.70;25.83;;;16.80;1.00;;;;;;5014529;28;20261;-65
2021/06/07 08:11:42;;;;;;;35.40;25.27;;;16.50;1.00;;;;;;5013923;28;20207;-64
2021/06/07 08:14:09;;;;;;;31.50;23.53;;;16.50;1.00;;;;;;5015088;28;20578;-66
2021/06/07 08:16:35;;;;;;;30.00;23.07;;;16.40;1.00;;;;;;5015308;28;20227;-64
2021/06/07 08:19:01;;;;;;;34.17;23.77;;;16.60;1.00;;;;;;5019819;28;20211;-65
2021/06/07 08:21:27;;;;;;;34.40;24.53;;;16.70;1.00;;;;;;5018535;28;20698;-65
2021/06/07 08:23:54;;;;;;;35.47;23.43;;;16.80;1.00;;;;;;5014916;28;20575;-64
2021/06/07 08:26:20;;;;;;;32.70;25.20;;;17.10;1.00;;;;;;5019123;28;20223;-64
2021/06/07 08:28:46;;;;;;;28.77;22.43;;;17.10;1.00;;;;;;5029951;28;20723;-64
2021/06/07 08:31:13;;;;;;;27.73;22.20;;;17.20;1.00;;;;;;5022280;28;20218;-66
2021/06/07 08:33:40;;;;;;;29.90;22.47;;;17.30;99.90;;;;;;5013935;28;20278;-65
2021/06/07 08:36:06;;;;;;;26.87;21.93;;;17.60;1.00;;;;;;5013551;28;20293;-65
2021/06/07 08:38:33;;;;;;;30.93;22.27;;;17.70;99.90;;;;;;5013794;28;20199;-65
2021/06/07 08:40:59;;;;;;;23.03;18.47;;;17.80;1.00;;;;;;5013235;28;20600;-64
2021/06/07 08:43:26;;;;;;;24.03;17.80;;;18.00;99.90;;;;;;5013613;28;20207;-62
2021/06/07 08:45:53;;;;;;;24.47;19.70;;;18.00;99.90;;;;;;5013222;28;20238;-65
2021/06/07 08:48:21;;;;;;;26.03;20.30;;;18.00;99.90;;;;;;5013353;28;20223;-64
2021/06/07 08:50:48;;;;;;;26.03;19.83;;;18.20;99.90;;;;;;5012661;28;20214;-63
2021/06/07 08:53:14;;;;;;;33.80;20.70;;;18.40;99.90;;;;;;5013540;28;20277;-64
2021/06/07 08:55:41;;;;;;;23.17;18.30;;;18.70;99.90;;;;;;5013270;28;20211;-64
2021/06/07 08:58:09;;;;;;;21.43;17.33;;;18.90;99.90;;;;;;5013405;28;20207;-64
2021/06/07 09:00:38;;;;;;;22.80;17.50;;;19.10;99.90;;;;;;5012660;28;20702;-64
2021/06/07 09:03:07;;;;;;;21.30;18.43;;;19.40;99.90;;;;;;5013023;28;20671;-64
2021/06/07 09:05:35;;;;;;;24.40;18.07;;;19.20;99.90;;;;;;5013128;28;20207;-64
2021/06/07 09:08:04;;;;;;;20.07;16.63;;;19.00;99.90;;;;;;5012864;28;20234;-64
2021/06/07 09:10:34;;;;;;;21.67;17.17;;;19.30;99.90;;;;;;5012738;28;20563;-64
2021/06/07 09:13:03;;;;;;;18.50;16.30;;;19.60;99.90;;;;;;5012957;28;20227;-64
2021/06/07 09:15:34;;;;;;;22.77;17.77;;;19.70;99.90;;;;;;5012797;28;20695;-64
2021/06/07 09:18:02;;;;;;;22.03;17.43;;;19.40;99.90;;;;;;5011747;28;20207;-63
2021/06/07 09:20:29;;;;;;;20.77;16.23;;;19.00;99.90;;;;;;5012337;28;20956;-64
2021/06/07 09:22:59;;;;;;;22.90;17.43;;;19.00;99.90;;;;;;5012635;28;20459;-65
2021/06/07 09:25:28;;;;;;;19.63;15.83;;;19.10;99.90;;;;;;5012793;28;20563;-64
2021/06/07 09:28:03;;;;;;;19.17;16.00;;;18.90;99.90;;;;;;5012634;28;20227;-62
2021/06/07 09:30:32;;;;;;;23.17;16.90;;;19.10;99.90;;;;;;5012385;28;20218;-61
2021/06/07 09:33:19;;;;;;;21.17;15.63;;;19.60;99.90;;;;;;5012764;28;20211;-61
2021/06/07 09:35:47;;;;;;;19.30;14.00;;;19.90;99.90;;;;;;5012773;28;20245;-62
2021/06/07 09:38:21;;;;;;;19.00;16.23;;;20.20;99.90;;;;;;5150610;27;20703;-60
2021/06/07 09:40:59;;;;;;;21.57;16.60;;;19.90;99.90;;;;;;5149703;27;20301;-63
2021/06/07 09:43:25;;;;;;;19.53;14.70;;;19.90;99.90;;;;;;5150691;27;20206;-62
2021/06/07 09:45:55;;;;;;;17.77;15.10;;;19.40;99.90;;;;;;5150274;27;20222;-62
2021/06/07 09:48:28;;;;;;;18.00;14.50;;;19.40;99.90;;;;;;5150601;27;20202;-63
2021/06/07 09:50:55;;;;;;;19.90;16.23;;;19.30;99.90;;;;;;5149794;27;20206;-63
2021/06/07 09:53:43;;;;;;;16.10;12.97;;;19.00;99.90;;;;;;5150099;27;20221;-63
2021/06/07 09:56:09;;;;;;;21.03;14.43;;;18.80;99.90;;;;;;5150137;27;20218;-60
2021/06/07 09:58:36;;;;;;;14.90;12.43;;;18.70;99.90;;;;;;5150490;27;20584;-62
2021/06/07 10:01:09;;;;;;;16.47;13.77;;;18.40;99.90;;;;;;5149703;27;20484;-62
2021/06/07 10:03:41;;;;;;;17.03;14.03;;;18.40;99.90;;;;;;5149922;27;20202;-64
2021/06/07 10:06:18;;;;;;;16.10;14.40;;;18.40;99.90;;;;;;5150314;27;20226;-63
2021/06/07 10:08:47;;;;;;;17.20;15.17;;;18.30;99.90;;;;;;5150281;27;20199;-63
2021/06/07 10:11:17;;;;;;;15.67;13.40;;;18.40;99.90;;;;;;5149754;27;20674;-62
2021/06/07 10:13:44;;;;;;;18.40;13.60;;;18.50;99.90;;;;;;5150115;27;20259;-62
2021/06/07 10:16:10;;;;;;;14.00;12.50;;;18.60;99.90;;;;;;5149606;27;20230;-61
2021/06/07 10:18:37;;;;;;;14.03;12.20;;;18.60;99.90;;;;;;5150103;27;20203;-62
2021/06/07 10:21:05;;;;;;;12.70;10.47;;;18.70;99.90;;;;;;5149711;27;20206;-62
2021/06/07 10:23:34;;;;;;;12.73;11.43;;;18.60;99.90;;;;;;5149755;27;20229;-61
2021/06/07 10:26:03;;;;;;;14.33;11.67;;;18.60;99.90;;;;;;5149816;27;20260;-62
2021/06/07 10:28:32;;;;;;;12.33;10.80;;;18.60;99.90;;;;;;5149514;27;20199;-61
2021/06/07 10:31:07;;;;;;;13.83;11.33;;;18.70;99.90;;;;;;5149334;27;20202;-61
2021/06/07 10:33:35;;;;;;;13.73;11.83;;;18.70;99.90;;;;;;5149834;27;20213;-62
2021/06/07 10:36:45;;;;;;;15.00;12.53;;;18.70;99.90;;;;;;5148738;27;20218;-63
2021/06/07 10:39:29;;;;;;;19.60;13.33;;;18.60;99.90;;;;;;5149601;27;20226;-63
2021/06/07 10:42:20;;;;;;;15.70;12.43;;;18.50;99.90;;;;;;5148202;27;20210;-62
2021/06/07 10:44:49;;;;;;;14.30;12.90;;;18.50;99.90;;;;;;5149320;27;20202;-62
2021/06/07 10:47:18;;;;;;;16.80;13.23;;;18.50;99.90;;;;;;5149735;27;20229;-62
2021/06/07 10:49:46;;;;;;;17.53;14.23;;;18.40;99.90;;;;;;5135442;27;20251;-63
2021/06/07 10:52:15;;;;;;;15.03;13.43;;;18.30;99.90;;;;;;5135309;27;20211;-63
2021/06/07 10:54:42;;;;;;;16.53;12.60;;;18.30;99.90;;;;;;5135259;27;20671;-63
2021/06/07 10:57:29;;;;;;;12.70;10.33;;;18.20;99.90;;;;;;5135276;27;20279;-62
2021/06/07 10:59:57;;;;;;;11.10;9.40;;;18.10;99.90;;;;;;5134819;27;20203;-61
2021/06/07 11:02:26;;;;;;;9.93;7.70;;;18.00;99.90;;;;;;5135092;27;20203;-61
2021/06/07 11:05:02;;;;;;;10.00;7.57;;;17.90;99.90;;;;;;5135360;27;20207;-62
2021/06/07 11:07:28;;;;;;;8.17;7.37;;;18.10;99.90;;;;;;5135043;27;20222;-61
2021/06/07 11:10:19;;;;;;;10.27;7.20;;;18.10;99.90;;;;;;5134778;27;20202;-62
2021/06/07 11:12:48;;;;;;;7.93;6.47;;;18.10;99.90;;;;;;5135282;27;20207;-61
2021/06/07 11:15:17;;;;;;;7.60;6.20;;;18.20;99.90;;;;;;5134804;27;20629;-61
2021/06/07 11:17:43;;;;;;;7.40;6.60;;;18.10;99.90;;;;;;5134790;27;20235;-62
2021/06/07 11:20:11;;;;;;;10.80;7.73;;;18.00;99.90;;;;;;5134675;27;20211;-63
2021/06/07 11:23:03;;;;;;;11.57;7.47;;;18.10;99.90;;;;;;5134556;27;20206;-63
2021/06/07 11:25:30;;;;;;;7.40;6.60;;;18.10;99.90;;;;;;5134645;27;20199;-63
2021/06/07 11:27:57;;;;;;;7.30;6.23;;;18.10;99.90;;;;;;5134887;27;20199;-62
2021/06/07 11:30:24;;;;;;;8.53;6.83;;;18.10;99.90;;;;;;5134261;27;20671;-63
2021/06/07 11:32:50;;;;;;;7.20;6.37;;;18.10;99.90;;;;;;5134641;27;20271;-61
2021/06/07 11:35:42;;;;;;;9.13;7.33;;;18.20;99.90;;;;;;5134432;27;20229;-61
2021/06/07 11:38:30;;;;;;;10.00;7.00;;;18.00;99.90;;;;;;5134382;27;20227;-61
2021/06/07 11:40:57;;;;;;;10.03;6.73;;;18.10;99.90;;;;;;5134159;27;20203;-63
2021/06/07 11:43:55;;;;;;;6.90;6.20;;;18.10;99.90;;;;;;5134544;27;20211;-63
2021/06/07 11:46:56;;;;;;;8.17;6.87;;;18.20;99.90;;;;;;5134562;27;20232;-63
2021/06/07 11:49:23;;;;;;;11.67;7.23;;;18.30;99.90;;;;;;5134302;27;20673;-63
2021/06/07 11:52:10;;;;;;;7.87;6.67;;;18.40;99.90;;;;;;5133838;27;20289;-63
2021/06/07 11:54:50;;;;;;;9.87;7.83;;;18.40;99.90;;;;;;5134375;27;20683;-63
2021/06/07 11:57:16;;;;;;;8.53;7.73;;;18.50;99.90;;;;;;5134008;27;20268;-63
2021/06/07 11:59:44;;;;;;;9.40;7.73;;;18.60;99.90;;;;;;5133165;27;20207;-63
2021/06/07 12:02:12;;;;;;;9.63;7.67;;;18.80;99.90;;;;;;5133885;27;20210;-63
2021/06/07 12:04:39;;;;;;;9.10;8.13;;;18.90;99.90;;;;;;5134605;27;20245;-63
2021/06/07 12:07:08;;;;;;;12.57;7.90;;;18.80;99.90;;;;;;5134145;27;20225;-64
2021/06/07 12:09:35;;;;;;;9.83;8.00;;;18.80;99.90;;;;;;5134155;27;20206;-64
2021/06/07 12:12:02;;;;;;;8.83;7.13;;;18.70;99.90;;;;;;5133571;27;20593;-63
2021/06/07 12:14:30;;;;;;;9.87;7.83;;;18.70;99.90;;;;;;5133954;27;20279;-64
2021/06/07 12:17:03;;;;;;;10.10;8.47;;;18.70;99.90;;;;;;5135565;27;20847;-66
2021/06/07 12:19:34;;;;;;;10.00;8.13;;;18.70;99.90;;;;;;5148542;27;20674;-66
2021/06/07 12:22:01;;;;;;;10.93;9.47;;;18.70;99.90;;;;;;5147644;27;20213;-66
2021/06/07 12:24:29;;;;;;;9.93;7.70;;;18.80;99.90;;;;;;5134776;27;20210;-65
2021/06/07 12:29:41;;;;;;;9.67;6.90;;;19.20;99.90;;;;;;5148150;27;20198;-66
2021/06/07 12:32:12;;;;;;;8.37;6.73;;;19.20;99.90;;;;;;5139906;27;20256;-63
2021/06/07 12:34:54;;;;;;;7.80;6.53;;;19.40;99.90;;;;;;5133638;27;20210;-62
2021/06/07 12:37:26;;;;;;;8.20;6.70;;;19.60;99.90;;;;;;5133079;27;20279;-65
2021/06/07 12:40:07;;;;;;;9.40;7.40;;;19.80;99.90;;;;;;5132949;27;20232;-64
2021/06/07 12:42:34;;;;;;;11.40;7.07;;;19.80;99.90;;;;;;5133407;27;20206;-64